Terminal Aerodrome Forecast
Issued by NWS

Home | Current Version | Previous Version | Text Only | Print | Product List | Glossary Off
Versions: 1 2 3 4 5 6 7 8 9 10 11 12 13 14 15 16 17 18 19 20

000
FTUS43 KICT 271447 AAB
TAFCNU
TAF AMD
KCNU 271447Z 2715/2812 16010KT P6SM VCTS SCT040CB OVC070
      TEMPO 2715/2716 1SM +TSRA BKN020 OVC040CB
     FM271800 17011KT P6SM SCT040 BKN200
     FM280000 16008KT P6SM SCT080 BKN150=

USA.gov is the U.S. government's official web portal to all federal, state and local government web resources and services.